Time;durP1;ratioP1;P1;durP2;ratioP2;P2;SDS_P1;SDS_P2;PMS_P1;PMS_P2;Temp;Humidity;BMP_temperature;BMP_pressure;BME280_temperature;BME280_humidity;BME280_pressure;Samples;Min_cycle;Max_cycle;Signal;HPM_P1;HPM_P2
2021/12/24 08:10:58;;;;;;;51.05;13.15;;;7.80;99.90;;;;;;5163622;27;20504;-70
2021/12/24 08:13:23;;;;;;;36.60;12.55;;;7.90;99.90;;;;;;5158863;27;20058;-69
2021/12/24 08:15:53;;;;;;;45.75;12.68;;;7.90;99.90;;;;;;5157626;27;20751;-69
2021/12/24 08:18:24;;;;;;;43.88;13.20;;;7.80;99.90;;;;;;5159503;27;20074;-70
2021/12/24 08:20:50;;;;;;;38.67;12.57;;;7.80;99.90;;;;;;5160488;27;20120;-68
2021/12/24 08:23:15;;;;;;;41.53;14.75;;;7.80;99.90;;;;;;5170356;27;20078;-67
2021/12/24 08:25:41;;;;;;;36.80;12.40;;;7.80;99.90;;;;;;5173656;27;20482;-67
2021/12/24 08:28:07;;;;;;;43.55;12.43;;;7.80;99.90;;;;;;5168708;27;20435;-65
2021/12/24 08:30:33;;;;;;;38.03;11.75;;;7.80;99.90;;;;;;5167117;27;20121;-66
2021/12/24 08:33:00;;;;;;;34.72;10.50;;;7.90;99.90;;;;;;5173141;27;20043;-68
2021/12/24 08:35:27;;;;;;;39.25;11.15;;;7.80;99.90;;;;;;5171988;27;20134;-69
2021/12/24 08:37:53;;;;;;;51.60;10.73;;;7.90;99.90;;;;;;5172927;27;20046;-67
2021/12/24 08:40:19;;;;;;;37.65;10.02;;;7.80;99.90;;;;;;5172958;27;20073;-66
2021/12/24 08:42:45;;;;;;;44.97;10.80;;;7.80;99.90;;;;;;5172985;27;20071;-67
2021/12/24 08:45:11;;;;;;;34.47;9.50;;;7.90;99.90;;;;;;5171916;27;20042;-68
2021/12/24 08:47:37;;;;;;;40.25;10.10;;;7.90;99.90;;;;;;5171657;27;20432;-67
2021/12/24 08:50:06;;;;;;;39.35;9.63;;;7.90;99.90;;;;;;5162190;27;20035;-68
2021/12/24 08:52:31;;;;;;;38.72;8.88;;;7.80;99.90;;;;;;5157004;27;20118;-68
2021/12/24 08:54:57;;;;;;;37.55;9.27;;;7.90;99.90;;;;;;5135443;27;20125;-66
2021/12/24 08:57:36;;;;;;;36.53;8.48;;;7.90;99.90;;;;;;5151354;27;20051;-70
2021/12/24 09:00:02;;;;;;;29.98;9.52;;;7.80;99.90;;;;;;5151775;27;20165;-70
2021/12/24 09:02:28;;;;;;;38.13;8.55;;;7.90;99.90;;;;;;5159983;27;20034;-69
2021/12/24 09:04:54;;;;;;;31.92;9.00;;;7.90;99.90;;;;;;5170474;27;20500;-69
2021/12/24 09:07:19;;;;;;;45.78;8.55;;;7.90;99.90;;;;;;5171369;27;20125;-69
2021/12/24 09:09:45;;;;;;;32.42;7.82;;;7.90;99.90;;;;;;5170799;27;20058;-68
2021/12/24 09:12:11;;;;;;;37.08;8.65;;;7.90;99.90;;;;;;5172118;27;20049;-68
2021/12/24 09:14:36;;;;;;;46.25;9.32;;;7.90;99.90;;;;;;5171604;27;20050;-68
2021/12/24 09:17:03;;;;;;;36.35;9.45;;;7.90;99.90;;;;;;5171831;27;20038;-68
2021/12/24 09:19:30;;;;;;;;;;;7.90;99.90;;;;;;5167685;27;20035;-70
2021/12/24 09:21:57;;;;;;;;;;;7.90;99.90;;;;;;5158052;27;20374;-69
2021/12/24 09:24:28;;;;;;;25.63;7.68;;;7.90;99.90;;;;;;5153475;27;19967;-67
2021/12/24 09:26:56;;;;;;;36.63;8.50;;;7.90;99.90;;;;;;5119499;27;20051;-68
2021/12/24 09:29:22;;;;;;;37.92;8.63;;;7.90;99.90;;;;;;5135855;27;20506;-68
2021/12/24 09:31:47;;;;;;;30.55;8.70;;;7.90;99.90;;;;;;5136443;27;20090;-69
2021/12/24 09:34:13;;;;;;;33.33;8.73;;;7.90;99.90;;;;;;5137206;27;20039;-70
2021/12/24 09:36:39;;;;;;;32.40;8.80;;;7.90;99.90;;;;;;5137252;27;20394;-70
2021/12/24 09:39:06;;;;;;;23.20;7.65;;;7.80;99.90;;;;;;5137145;27;20497;-69
2021/12/24 09:41:32;;;;;;;27.25;7.80;;;7.80;99.90;;;;;;5136066;27;20474;-68
2021/12/24 09:44:00;;;;;;;33.88;7.15;;;7.80;99.90;;;;;;5136942;27;20092;-69
2021/12/24 09:46:27;;;;;;;28.33;7.53;;;7.80;99.90;;;;;;5135942;27;20051;-69
2021/12/24 09:48:54;;;;;;;18.92;6.90;;;7.80;99.90;;;;;;5136025;27;20047;-68
2021/12/24 09:51:24;;;;;;;19.48;6.28;;;7.90;99.90;;;;;;5136588;27;20603;-69
2021/12/24 09:53:50;;;;;;;19.25;6.20;;;7.80;99.90;;;;;;5137023;27;20051;-69
2021/12/24 09:56:16;;;;;;;16.05;5.70;;;7.70;99.90;;;;;;5136250;27;20374;-69
2021/12/24 09:58:42;;;;;;;21.15;5.05;;;7.80;99.90;;;;;;5136785;27;20402;-68
2021/12/24 10:01:07;;;;;;;15.27;4.63;;;7.70;99.90;;;;;;5137020;27;20051;-69
2021/12/24 10:03:36;;;;;;;15.15;4.60;;;7.80;99.90;;;;;;5135501;27;20547;-67
2021/12/24 10:06:04;;;;;;;8.75;2.75;;;7.70;99.90;;;;;;5135430;27;20047;-68
2021/12/24 10:08:31;;;;;;;7.00;2.00;;;7.70;99.90;;;;;;5135561;27;20054;-69
2021/12/24 10:11:06;;;;;;;1.98;1.17;;;7.50;99.90;;;;;;5134984;27;20051;-70
2021/12/24 10:13:39;;;;;;;3.10;1.23;;;7.40;99.90;;;;;;5118782;27;20389;-71
2021/12/24 10:16:10;;;;;;;2.38;1.33;;;7.40;99.90;;;;;;5117805;27;20495;-68
2021/12/24 10:18:47;;;;;;;1.55;1.00;;;7.10;99.90;;;;;;5140855;27;20082;-69
2021/12/24 10:21:19;;;;;;;2.47;1.42;;;7.00;99.90;;;;;;5121901;27;20042;-69
2021/12/24 10:23:57;;;;;;;2.72;1.45;;;6.90;99.90;;;;;;5097841;28;20130;-70
2021/12/24 10:26:25;;;;;;;2.58;1.63;;;6.80;99.90;;;;;;5098598;28;20083;-73
2021/12/24 10:28:54;;;;;;;3.97;1.90;;;6.60;99.90;;;;;;5104081;27;20104;-71
2021/12/24 10:31:30;;;;;;;2.28;1.40;;;6.70;99.90;;;;;;5141445;27;20051;-69
2021/12/24 10:34:21;;;;;;;3.75;1.60;;;6.60;99.90;;;;;;5143423;27;20085;-69
2021/12/24 10:36:49;;;;;;;5.60;1.90;;;6.50;99.90;;;;;;5141970;27;20047;-69
2021/12/24 10:39:19;;;;;;;3.78;2.00;;;6.50;99.90;;;;;;5145259;27;20043;-69
2021/12/24 10:41:50;;;;;;;3.10;1.98;;;6.40;99.90;;;;;;5141543;27;20092;-66
2021/12/24 10:44:21;;;;;;;3.67;2.25;;;6.40;99.90;;;;;;5144165;27;20050;-68
2021/12/24 10:47:02;;;;;;;4.30;2.10;;;6.40;99.90;;;;;;5151976;27;20126;-69
2021/12/24 10:52:26;;;;;;;3.65;2.30;;;6.40;99.90;;;;;;5156042;27;20054;-69
2021/12/24 10:54:56;;;;;;;4.40;2.60;;;6.30;99.90;;;;;;5156177;27;20031;-68
2021/12/24 10:57:25;;;;;;;3.80;2.35;;;6.40;99.90;;;;;;5155327;27;20050;-68
2021/12/24 10:59:54;;;;;;;4.07;2.50;;;6.40;99.90;;;;;;5155755;27;20427;-69
2021/12/24 11:02:24;;;;;;;3.10;2.20;;;6.30;99.90;;;;;;5155320;27;20097;-69
2021/12/24 11:04:53;;;;;;;3.17;1.92;;;6.40;99.90;;;;;;5156451;27;20047;-69
2021/12/24 11:07:34;;;;;;;4.05;2.10;;;6.30;99.90;;;;;;5154608;27;20431;-69
2021/12/24 11:10:12;;;;;;;4.60;2.45;;;6.40;99.90;;;;;;5155955;27;20135;-70
2021/12/24 11:12:44;;;;;;;4.70;3.00;;;6.30;99.90;;;;;;5155079;27;20443;-71
2021/12/24 11:15:19;;;;;;;3.97;2.55;;;6.30;99.90;;;;;;5154718;27;20054;-70
2021/12/24 11:17:45;;;;;;;3.65;2.80;;;6.30;99.90;;;;;;5155804;27;20049;-70
2021/12/24 11:20:12;;;;;;;4.00;2.50;;;6.30;99.90;;;;;;5155075;27;20053;-69
2021/12/24 11:22:50;;;;;;;;;;;6.20;99.90;;;;;;5156440;27;20068;-67
2021/12/24 11:25:18;;;;;;;4.95;3.30;;;6.10;99.90;;;;;;5145707;27;19920;-69
2021/12/24 11:27:44;;;;;;;5.13;3.13;;;6.20;99.90;;;;;;5138230;27;20088;-68
2021/12/24 11:30:10;;;;;;;4.85;3.90;;;6.20;99.90;;;;;;5134848;27;20047;-68
2021/12/24 11:32:36;;;;;;;5.32;3.63;;;6.10;99.90;;;;;;5135286;27;20078;-68
2021/12/24 11:35:03;;;;;;;6.30;3.80;;;6.10;99.90;;;;;;5133869;27;20047;-68
2021/12/24 11:37:30;;;;;;;5.85;4.07;;;6.10;99.90;;;;;;5134836;27;20363;-67
2021/12/24 11:39:57;;;;;;;5.15;3.67;;;6.20;99.90;;;;;;5132912;27;20035;-69
2021/12/24 11:42:24;;;;;;;8.27;4.68;;;6.20;99.90;;;;;;5127668;27;20040;-68
2021/12/24 11:44:50;;;;;;;7.72;3.70;;;6.20;99.90;;;;;;5113897;28;20051;-66
2021/12/24 11:47:16;;;;;;;7.10;4.10;;;6.10;99.90;;;;;;5136073;27;20050;-69
2021/12/24 11:49:42;;;;;;;6.60;4.50;;;6.20;99.90;;;;;;5144383;27;20043;-67
2021/12/24 11:52:08;;;;;;;6.32;4.47;;;6.20;99.90;;;;;;5125697;27;20474;-68
2021/12/24 11:54:34;;;;;;;6.55;4.78;;;6.10;99.90;;;;;;5144450;27;20051;-68
2021/12/24 11:57:00;;;;;;;5.43;3.90;;;6.20;99.90;;;;;;5133496;27;20501;-69
2021/12/24 11:59:36;;;;;;;6.13;4.63;;;6.10;99.90;;;;;;5114038;28;20126;-68
2021/12/24 12:02:02;;;;;;;6.85;4.88;;;6.10;99.90;;;;;;5095967;28;20560;-67
2021/12/24 12:04:28;;;;;;;8.23;5.85;;;6.10;99.90;;;;;;5113156;28;20060;-67
2021/12/24 12:07:17;;;;;;;26.17;14.25;;;6.10;99.90;;;;;;5112908;28;20044;-68
2021/12/24 12:09:47;;;;;;;14.50;9.13;;;6.20;99.90;;;;;;5139646;27;20063;-69
2021/12/24 12:12:16;;;;;;;12.75;6.68;;;6.20;99.90;;;;;;5127668;27;20054;-67
2021/12/24 12:14:42;;;;;;;7.25;4.30;;;6.20;99.90;;;;;;5154636;27;20050;-68
2021/12/24 12:17:08;;;;;;;6.50;4.68;;;6.10;99.90;;;;;;5154131;27;20038;-68
2021/12/24 12:19:46;;;;;;;7.35;5.20;;;6.20;99.90;;;;;;5155430;27;20535;-68
2021/12/24 12:25:00;;;;;;;7.15;5.10;;;6.20;99.90;;;;;;5155136;27;20131;-68
2021/12/24 12:27:57;;;;;;;5.65;4.20;;;6.10;99.90;;;;;;5155112;27;20104;-67
2021/12/24 12:30:22;;;;;;;7.13;5.28;;;6.10;99.90;;;;;;5154682;27;20392;-69
2021/12/24 12:32:50;;;;;;;6.00;4.75;;;6.10;99.90;;;;;;5154353;27;20058;-69
2021/12/24 12:35:17;;;;;;;7.75;4.75;;;6.00;99.90;;;;;;5138762;27;20054;-69
2021/12/24 12:37:48;;;;;;;6.53;4.40;;;6.00;99.90;;;;;;5133355;28;20073;-66
2021/12/24 12:40:16;;;;;;;7.82;4.70;;;6.10;99.90;;;;;;5133274;28;20051;-67
2021/12/24 12:42:54;;;;;;;7.15;4.65;;;6.10;99.90;;;;;;5134256;27;20466;-67
2021/12/24 12:45:36;;;;;;;6.55;5.15;;;6.10;99.90;;;;;;5134232;27;20055;-66
2021/12/24 12:48:05;;;;;;;6.78;4.72;;;6.10;99.90;;;;;;5134048;27;20432;-65
2021/12/24 12:50:31;;;;;;;6.20;4.25;;;6.10;99.90;;;;;;5133163;28;20082;-66
2021/12/24 12:53:26;;;;;;;8.18;5.28;;;6.10;99.90;;;;;;5134561;27;20047;-66
2021/12/24 12:56:16;;;;;;;7.10;5.40;;;6.20;99.90;;;;;;5141782;27;20062;-66
2021/12/24 12:58:56;;;;;;;10.43;5.72;;;6.20;99.90;;;;;;5144927;27;20413;-67
2021/12/24 13:01:22;;;;;;;10.93;5.72;;;6.30;99.90;;;;;;5145022;27;20498;-67
2021/12/24 13:04:09;;;;;;;7.65;5.13;;;6.40;99.90;;;;;;5147014;27;20219;-68
2021/12/24 13:06:35;;;;;;;9.27;5.70;;;6.40;99.90;;;;;;5117225;28;20073;-66
2021/12/24 13:09:06;;;;;;;9.25;6.25;;;6.40;99.90;;;;;;5115058;28;20490;-66
2021/12/24 13:11:44;;;;;;;10.27;5.00;;;6.40;99.90;;;;;;5117176;28;20058;-67
2021/12/24 13:14:11;;;;;;;8.45;4.80;;;6.40;99.90;;;;;;5124941;27;20058;-66
2021/12/24 13:16:51;;;;;;;7.10;4.50;;;6.60;99.90;;;;;;5136756;27;20054;-66
2021/12/24 13:24:54;;;;;;;8.13;4.88;;;6.50;99.90;;;;;;5136166;27;20111;-67
2021/12/24 13:27:26;;;;;;;6.55;4.07;;;6.50;99.90;;;;;;5136885;27;20058;-68
2021/12/24 13:30:08;;;;;;;7.28;4.50;;;6.50;99.90;;;;;;5136568;27;20047;-68
2021/12/24 13:32:43;;;;;;;7.55;4.28;;;6.50;99.90;;;;;;5136178;27;20043;-68
2021/12/24 13:35:10;;;;;;;6.72;4.30;;;6.50;99.90;;;;;;5132709;27;20053;-67
2021/12/24 13:37:36;;;;;;;11.23;4.90;;;6.50;99.90;;;;;;5135709;27;20526;-67
2021/12/24 13:40:08;;;;;;;8.18;4.55;;;6.50;99.90;;;;;;5136033;27;20172;-68
2021/12/24 13:42:42;;;;;;;5.60;3.70;;;6.50;99.90;;;;;;5135659;27;20051;-68
2021/12/24 13:45:08;;;;;;;6.05;3.80;;;6.50;99.90;;;;;;5137053;27;20122;-66
2021/12/24 13:50:30;;;;;;;9.10;3.88;;;6.50;99.90;;;;;;5135747;27;20047;-68
2021/12/24 13:55:46;;;;;;;7.20;3.50;;;6.50;99.90;;;;;;5116511;28;20055;-67
2021/12/24 13:58:14;;;;;;;4.97;3.35;;;6.50;99.90;;;;;;5115959;28;20051;-68
2021/12/24 14:00:47;;;;;;;6.25;3.70;;;6.50;99.90;;;;;;5116130;28;20047;-68
2021/12/24 14:03:14;;;;;;;4.80;3.53;;;6.60;99.90;;;;;;5115446;28;20134;-68
2021/12/24 14:05:47;;;;;;;6.22;3.28;;;6.50;99.90;;;;;;5115502;28;20055;-67
2021/12/24 14:08:19;;;;;;;7.18;3.72;;;6.50;99.90;;;;;;5116430;28;20052;-67
2021/12/24 14:10:48;;;;;;;5.60;3.67;;;6.50;99.90;;;;;;5114476;28;20060;-68
2021/12/24 14:13:29;;;;;;;7.03;4.10;;;6.50;99.90;;;;;;5114851;28;20130;-67
2021/12/24 14:16:35;;;;;;;9.25;5.00;;;6.50;99.90;;;;;;5114966;28;20136;-67
2021/12/24 14:18:51;;;;;;;10.63;4.32;;;6.50;99.90;;;;;;5114178;28;20091;-68
2021/12/24 14:24:34;;;;;;;8.65;4.68;;;6.60;99.90;;;;;;5144815;27;20059;-68
2021/12/24 14:27:09;;;;;;;8.68;4.82;;;6.50;99.90;;;;;;5143594;27;20502;-68
2021/12/24 14:29:43;;;;;;;8.55;5.43;;;6.50;99.90;;;;;;5147638;27;20042;-67
2021/12/24 14:32:26;;;;;;;6.07;3.85;;;6.50;99.90;;;;;;5142758;27;20211;-67
2021/12/24 14:34:54;;;;;;;5.05;3.40;;;6.50;99.90;;;;;;5147254;27;20039;-67
2021/12/24 14:37:37;;;;;;;6.65;4.00;;;6.40;99.90;;;;;;5140912;27;20073;-68
2021/12/24 14:40:08;;;;;;;6.80;3.40;;;6.50;99.90;;;;;;5146638;27;20466;-67
2021/12/24 14:42:39;;;;;;;6.25;3.47;;;6.50;99.90;;;;;;5145247;27;20054;-68
2021/12/24 14:45:21;;;;;;;5.20;3.55;;;6.40;99.90;;;;;;5141275;27;20092;-69
2021/12/24 14:48:08;;;;;;;6.18;1.88;;;6.40;99.90;;;;;;5141706;27;20051;-66
2021/12/24 14:50:50;;;;;;;3.07;1.60;;;6.40;99.90;;;;;;5155397;27;20095;-67
2021/12/24 14:53:19;;;;;;;1.73;0.95;;;6.30;99.90;;;;;;5155867;27;20288;-65
2021/12/24 14:55:53;;;;;;;1.17;0.73;;;6.30;99.90;;;;;;5138174;27;20547;-66
2021/12/24 14:58:35;;;;;;;2.40;1.10;;;6.20;99.90;;;;;;5156420;27;20058;-63
2021/12/24 15:01:15;;;;;;;2.20;1.23;;;6.10;99.90;;;;;;5149738;27;20535;-66
2021/12/24 15:03:43;;;;;;;3.05;1.02;;;6.10;99.90;;;;;;5141814;27;20123;-67
2021/12/24 15:06:17;;;;;;;4.00;1.20;;;6.00;99.90;;;;;;5144668;27;20050;-69
2021/12/24 15:08:44;;;;;;;2.90;1.23;;;5.90;99.90;;;;;;5142290;27;20505;-67
2021/12/24 15:11:14;;;;;;;6.55;1.30;;;6.00;99.90;;;;;;5142909;27;20055;-66
2021/12/24 15:13:46;;;;;;;3.88;1.30;;;5.90;99.90;;;;;;5141477;27;20065;-65
2021/12/24 15:16:16;;;;;;;4.63;1.23;;;5.90;99.90;;;;;;5143205;27;20051;-66
2021/12/24 15:18:43;;;;;;;4.80;1.40;;;5.80;99.90;;;;;;5152851;27;20070;-67
2021/12/24 15:21:09;;;;;;;3.45;1.13;;;5.80;99.90;;;;;;5154961;27;20486;-67
2021/12/24 15:23:35;;;;;;;3.15;1.33;;;5.80;99.90;;;;;;5155663;27;20053;-67
2021/12/24 15:26:01;;;;;;;8.52;1.80;;;5.80;99.90;;;;;;5155957;27;20086;-66
2021/12/24 15:28:27;;;;;;;6.70;1.73;;;5.70;99.90;;;;;;5155024;27;20046;-66
2021/12/24 15:30:54;;;;;;;3.55;1.40;;;5.70;99.90;;;;;;5154123;27;20078;-67
2021/12/24 15:33:21;;;;;;;2.40;1.17;;;5.70;99.90;;;;;;5154582;27;20058;-70
2021/12/24 15:35:49;;;;;;;7.07;1.60;;;5.70;99.90;;;;;;5135331;27;20086;-66
2021/12/24 15:38:15;;;;;;;3.28;1.38;;;5.60;99.90;;;;;;5133868;27;20114;-67
2021/12/24 15:40:41;;;;;;;6.53;1.73;;;5.70;99.90;;;;;;5116786;27;20050;-67
2021/12/24 15:43:08;;;;;;;6.30;1.77;;;5.70;99.90;;;;;;5133886;27;20046;-67
2021/12/24 15:45:35;;;;;;;3.97;1.55;;;5.60;99.90;;;;;;5133890;27;20059;-69
2021/12/24 15:48:01;;;;;;;6.20;1.63;;;5.70;99.90;;;;;;5134787;27;20125;-68
2021/12/24 15:50:28;;;;;;;7.00;1.83;;;5.60;99.90;;;;;;5133553;27;20047;-69
2021/12/24 15:52:54;;;;;;;6.05;2.10;;;5.60;99.90;;;;;;5133783;27;20047;-67
2021/12/24 15:55:20;;;;;;;9.13;1.88;;;5.60;99.90;;;;;;5133729;27;20100;-68
2021/12/24 15:57:46;;;;;;;17.05;12.52;;;5.60;99.90;;;;;;5138771;27;20490;-68
2021/12/24 16:00:12;;;;;;;9.50;5.28;;;5.60;99.90;;;;;;5149113;27;20502;-69
2021/12/24 16:02:38;;;;;;;6.63;3.35;;;5.60;99.90;;;;;;5150714;27;20039;-68
2021/12/24 16:05:04;;;;;;;8.48;3.35;;;5.60;99.90;;;;;;5144705;27;20478;-67
2021/12/24 16:07:29;;;;;;;7.45;2.40;;;5.60;99.90;;;;;;5144179;27;20427;-71
2021/12/24 16:09:56;;;;;;;8.30;2.28;;;5.50;99.90;;;;;;5143729;27;20050;-67
2021/12/24 16:12:22;;;;;;;8.90;2.10;;;5.60;99.90;;;;;;5142948;27;20371;-68
2021/12/24 16:14:48;;;;;;;5.15;2.53;;;5.50;99.90;;;;;;5143420;27;20046;-67
2021/12/24 16:17:14;;;;;;;7.28;2.75;;;5.50;99.90;;;;;;5138051;27;20042;-68
2021/12/24 16:19:39;;;;;;;7.65;2.05;;;5.50;99.90;;;;;;5142640;27;20053;-69
2021/12/24 16:22:07;;;;;;;6.85;2.35;;;5.40;99.90;;;;;;5143378;27;20070;-69
2021/12/24 16:24:34;;;;;;;5.40;2.80;;;5.50;99.90;;;;;;5144234;27;20111;-68
2021/12/24 16:27:00;;;;;;;7.97;2.60;;;5.40;99.90;;;;;;5142561;27;20070;-69
2021/12/24 16:29:54;;;;;;;7.20;2.72;;;5.50;99.90;;;;;;5145990;27;20035;-67
2021/12/24 16:32:23;;;;;;;7.80;3.28;;;5.40;99.90;;;;;;5157175;27;20055;-68
2021/12/24 16:34:49;;;;;;;10.18;3.03;;;5.40;99.90;;;;;;5148215;27;20043;-68
2021/12/24 16:37:15;;;;;;;6.32;2.70;;;5.30;99.90;;;;;;5138644;27;20070;-69
2021/12/24 16:39:42;;;;;;;8.77;2.30;;;5.30;99.90;;;;;;5137388;27;20130;-67
2021/12/24 16:42:11;;;;;;;6.78;1.60;;;5.20;99.90;;;;;;5139084;27;20155;-68
2021/12/24 16:44:37;;;;;;;8.98;2.30;;;5.20;99.90;;;;;;5138425;27;20058;-67
2021/12/24 16:47:03;;;;;;;;;;;5.20;99.90;;;;;;5142984;27;20505;-69
2021/12/24 16:49:29;;;;;;;6.55;1.80;;;5.10;99.90;;;;;;5147465;27;19919;-68
2021/12/24 16:51:55;;;;;;;10.82;3.10;;;5.00;99.90;;;;;;5147032;27;20578;-68
2021/12/24 16:54:21;;;;;;;12.27;3.30;;;5.00;99.90;;;;;;5147957;27;20038;-68
2021/12/24 16:56:47;;;;;;;11.80;2.90;;;5.00;99.90;;;;;;5148223;27;20050;-68
2021/12/24 16:59:18;;;;;;;13.38;3.53;;;5.00;99.90;;;;;;5145276;27;20050;-68
2021/12/24 17:01:43;;;;;;;9.75;2.90;;;4.90;99.90;;;;;;5145568;27;20051;-68
2021/12/24 17:04:09;;;;;;;11.32;4.22;;;4.70;99.90;;;;;;5140981;27;20367;-68
2021/12/24 17:06:35;;;;;;;14.57;4.40;;;4.80;99.90;;;;;;5146225;27;20039;-67
2021/12/24 17:09:00;;;;;;;12.25;4.20;;;4.80;99.90;;;;;;5147496;27;20034;-67
2021/12/24 17:11:27;;;;;;;12.57;4.13;;;4.80;99.90;;;;;;5130444;27;20079;-69
2021/12/24 17:13:53;;;;;;;15.18;4.00;;;4.70;99.90;;;;;;5144369;27;20486;-67
2021/12/24 17:16:19;;;;;;;;;;;4.70;99.90;;;;;;5148119;27;20047;-68
2021/12/24 17:18:46;;;;;;;14.10;3.80;;;4.70;99.90;;;;;;5148532;27;19920;-68
2021/12/24 17:21:12;;;;;;;11.13;4.60;;;4.70;99.90;;;;;;5142600;27;20124;-67
2021/12/24 17:23:37;;;;;;;14.18;5.80;;;4.70;99.90;;;;;;5147202;27;20481;-67
2021/12/24 17:26:03;;;;;;;14.48;5.82;;;4.70;99.90;;;;;;5147375;27;20046;-68
2021/12/24 17:28:29;;;;;;;24.27;11.30;;;4.60;99.90;;;;;;5156832;27;20082;-66
2021/12/24 17:30:56;;;;;;;13.65;7.30;;;4.60;99.90;;;;;;5156799;27;20042;-65
2021/12/24 17:33:22;;;;;;;25.10;9.25;;;4.50;99.90;;;;;;5157061;27;20482;-65
2021/12/24 17:35:48;;;;;;;27.48;9.25;;;4.50;99.90;;;;;;5138641;27;20043;-68
2021/12/24 17:38:14;;;;;;;18.80;9.73;;;4.40;99.90;;;;;;5136155;27;20054;-66
2021/12/24 17:40:41;;;;;;;18.42;8.88;;;4.40;99.90;;;;;;5141921;27;20043;-67
2021/12/24 17:43:11;;;;;;;;;;;4.30;99.90;;;;;;5148114;27;20086;-68
2021/12/24 17:45:39;;;;;;;24.13;9.15;;;4.20;99.90;;;;;;5145797;27;19919;-68
2021/12/24 17:48:05;;;;;;;21.40;9.65;;;4.10;99.90;;;;;;5145180;27;20048;-67
2021/12/24 17:50:31;;;;;;;20.08;9.15;;;4.10;99.90;;;;;;5145170;27;20073;-68
2021/12/24 17:52:57;;;;;;;21.00;10.23;;;4.10;99.90;;;;;;5135995;27;20043;-67
2021/12/24 17:55:22;;;;;;;25.00;11.13;;;4.00;99.90;;;;;;5118830;27;20043;-68
2021/12/24 17:57:48;;;;;;;29.13;11.18;;;4.00;99.90;;;;;;5136951;27;20043;-67
2021/12/24 18:00:15;;;;;;;28.95;11.40;;;4.00;99.90;;;;;;5145676;27;20379;-68
2021/12/24 18:02:41;;;;;;;22.63;11.60;;;4.00;99.90;;;;;;5141551;27;20054;-67
2021/12/24 18:05:10;;;;;;;28.20;11.95;;;3.90;99.90;;;;;;5138723;27;20062;-67
2021/12/24 18:07:36;;;;;;;25.30;11.40;;;3.80;99.90;;;;;;5148456;27;20152;-68
2021/12/24 18:10:03;;;;;;;25.45;11.57;;;3.80;99.90;;;;;;5145353;27;20506;-67
2021/12/24 18:12:31;;;;;;;23.50;10.65;;;3.70;99.90;;;;;;5147767;27;20218;-66
2021/12/24 18:14:58;;;;;;;23.20;11.02;;;3.70;99.90;;;;;;5145539;27;20050;-67
2021/12/24 18:17:24;;;;;;;19.98;10.50;;;3.60;99.90;;;;;;5144449;27;20034;-66
2021/12/24 18:19:50;;;;;;;;;;;3.50;99.90;;;;;;5138505;27;20495;-66
2021/12/24 18:22:15;;;;;;;20.33;10.25;;;3.50;99.90;;;;;;5141427;27;19973;-67
2021/12/24 18:24:41;;;;;;;20.33;10.93;;;3.40;99.90;;;;;;5144380;27;20042;-66
2021/12/24 18:27:08;;;;;;;21.77;11.25;;;3.30;99.90;;;;;;5145042;27;20100;-67
2021/12/24 18:29:33;;;;;;;19.65;10.85;;;3.30;99.90;;;;;;5139246;27;20118;-66
2021/12/24 18:31:59;;;;;;;23.17;11.93;;;3.20;99.90;;;;;;5134029;27;20147;-66
2021/12/24 18:34:25;;;;;;;18.67;11.07;;;3.20;99.90;;;;;;5128450;27;20043;-67
2021/12/24 18:36:50;;;;;;;20.65;10.73;;;3.20;99.90;;;;;;5114478;28;20035;-67
2021/12/24 18:39:17;;;;;;;19.80;10.63;;;3.10;99.90;;;;;;5114713;28;20097;-66
2021/12/24 18:41:43;;;;;;;22.20;10.45;;;3.10;99.90;;;;;;5114916;28;20434;-66
2021/12/24 18:44:09;;;;;;;19.17;9.70;;;3.10;99.90;;;;;;5114411;28;20043;-66
2021/12/24 18:46:35;;;;;;;;;;;3.00;99.90;;;;;;5115263;28;20387;-66
2021/12/24 18:49:01;;;;;;;20.65;11.10;;;2.90;99.90;;;;;;5114958;28;19919;-66
2021/12/24 18:51:26;;;;;;;19.85;10.60;;;2.90;99.90;;;;;;5114204;28;20043;-66
2021/12/24 18:53:53;;;;;;;18.42;11.05;;;2.90;99.90;;;;;;5113527;28;20048;-67
2021/12/24 18:56:19;;;;;;;20.67;11.30;;;2.90;99.90;;;;;;5115209;28;20050;-66
2021/12/24 18:58:46;;;;;;;21.15;11.30;;;2.80;99.90;;;;;;5113853;28;20048;-66
2021/12/24 19:01:12;;;;;;;24.10;12.07;;;2.80;99.90;;;;;;5113864;28;20076;-66
2021/12/24 19:03:38;;;;;;;17.55;10.82;;;2.80;99.90;;;;;;5114548;28;20047;-65
2021/12/24 19:06:04;;;;;;;21.13;11.82;;;2.80;99.90;;;;;;5114027;28;20050;-66
2021/12/24 19:08:29;;;;;;;21.13;11.73;;;2.80;99.90;;;;;;5113895;28;20086;-66
2021/12/24 19:10:55;;;;;;;19.45;10.48;;;2.70;99.90;;;;;;5113794;28;20061;-65
2021/12/24 19:13:21;;;;;;;21.20;10.90;;;2.70;99.90;;;;;;5114979;28;20486;-65
2021/12/24 19:15:47;;;;;;;19.98;10.02;;;2.70;99.90;;;;;;5113912;28;20039;-64
2021/12/24 19:18:14;;;;;;;21.63;11.55;;;2.60;99.90;;;;;;5114099;28;20100;-65
2021/12/24 19:20:39;;;;;;;;;;;2.60;99.90;;;;;;5114224;28;20086;-66
2021/12/24 19:23:05;;;;;;;20.38;10.35;;;2.60;99.90;;;;;;5115401;28;19955;-65
2021/12/24 19:25:32;;;;;;;18.45;9.90;;;2.60;99.90;;;;;;5113462;28;20122;-65
2021/12/24 19:27:58;;;;;;;16.67;8.98;;;2.60;99.90;;;;;;5114224;28;20421;-64
2021/12/24 19:30:24;;;;;;;17.58;8.98;;;2.50;99.90;;;;;;5114435;28;20039;-65
2021/12/24 19:32:53;;;;;;;16.73;9.07;;;2.50;99.90;;;;;;5114807;28;20051;-66
2021/12/24 19:35:19;;;;;;;16.02;8.98;;;2.40;99.90;;;;;;5114500;28;20052;-64
2021/12/24 19:37:45;;;;;;;14.18;8.13;;;2.40;99.90;;;;;;5114487;28;20043;-66
2021/12/24 19:40:12;;;;;;;14.73;8.77;;;2.40;99.90;;;;;;5141057;27;20039;-65
2021/12/24 19:42:38;;;;;;;13.90;8.40;;;2.30;99.90;;;;;;5113541;28;20408;-65
2021/12/24 19:45:05;;;;;;;13.48;8.18;;;2.30;99.90;;;;;;5121223;27;20046;-66
2021/12/24 19:47:31;;;;;;;17.40;9.30;;;2.20;99.90;;;;;;5134626;27;20375;-65
2021/12/24 19:49:57;;;;;;;15.63;10.10;;;2.20;99.90;;;;;;5134771;27;20060;-67
2021/12/24 19:52:23;;;;;;;19.25;9.05;;;2.10;99.90;;;;;;5117069;27;20080;-65
2021/12/24 19:54:48;;;;;;;14.15;8.10;;;2.10;99.90;;;;;;5137463;27;20042;-65
2021/12/24 19:57:14;;;;;;;15.75;8.82;;;2.10;99.90;;;;;;5144058;27;20041;-64
2021/12/24 19:59:40;;;;;;;14.85;8.35;;;2.00;99.90;;;;;;5143095;27;20078;-65
2021/12/24 20:02:06;;;;;;;17.15;8.90;;;2.00;99.90;;;;;;5149430;27;20085;-66
2021/12/24 20:04:33;;;;;;;14.95;7.88;;;1.90;99.90;;;;;;5156008;27;20050;-65
2021/12/24 20:06:59;;;;;;;12.55;7.47;;;1.80;99.90;;;;;;5155375;27;20046;-64
2021/12/24 20:09:24;;;;;;;14.43;8.52;;;1.80;99.90;;;;;;5153848;27;20112;-66
2021/12/24 20:11:50;;;;;;;17.45;8.80;;;1.80;99.90;;;;;;5154610;27;20093;-65
2021/12/24 20:14:16;;;;;;;15.52;7.72;;;1.70;99.90;;;;;;5155666;27;20065;-64
2021/12/24 20:16:45;;;;;;;14.35;8.20;;;1.70;99.90;;;;;;5155401;27;20089;-64
2021/12/24 20:19:12;;;;;;;13.85;8.50;;;1.70;99.90;;;;;;5155631;27;20046;-65
2021/12/24 20:21:39;;;;;;;16.90;9.13;;;1.70;99.90;;;;;;5155217;27;20541;-64
2021/12/24 20:24:06;;;;;;;14.43;7.68;;;1.70;99.90;;;;;;5154884;27;20487;-65
2021/12/24 20:26:32;;;;;;;20.00;8.68;;;1.60;99.90;;;;;;5155094;27;20075;-64
2021/12/24 20:28:57;;;;;;;14.77;8.57;;;1.60;99.90;;;;;;5155519;27;20047;-65
2021/12/24 20:31:24;;;;;;;18.52;8.98;;;1.60;99.90;;;;;;5154123;27;20053;-63
2021/12/24 20:33:50;;;;;;;18.67;8.52;;;1.70;99.90;;;;;;5152431;27;20049;-65
2021/12/24 20:36:17;;;;;;;14.60;8.98;;;1.70;99.90;;;;;;5133320;28;20483;-65
2021/12/24 20:38:43;;;;;;;14.35;10.20;;;1.70;99.90;;;;;;5133352;28;20043;-65
2021/12/24 20:41:09;;;;;;;;;;;1.70;99.90;;;;;;5135000;28;20584;-64
2021/12/24 20:43:36;;;;;;;14.50;9.23;;;1.70;99.90;;;;;;5134263;27;19963;-64
2021/12/24 20:46:04;;;;;;;;;;;1.60;99.90;;;;;;5142796;27;20509;-65
2021/12/24 20:48:33;;;;;;;13.63;8.45;;;1.70;99.90;;;;;;5136866;27;20272;-65
2021/12/24 20:50:59;;;;;;;14.70;8.32;;;1.60;99.90;;;;;;5134226;27;20092;-65
2021/12/24 20:53:25;;;;;;;13.65;8.00;;;1.60;99.90;;;;;;5134752;27;20047;-66
2021/12/24 20:55:51;;;;;;;14.23;8.27;;;1.70;99.90;;;;;;5132997;28;20130;-64
2021/12/24 20:58:17;;;;;;;14.52;7.90;;;1.70;99.90;;;;;;5134077;27;20039;-65
2021/12/24 21:00:43;;;;;;;;;;;1.70;99.90;;;;;;5133534;28;20104;-65
2021/12/24 21:03:11;;;;;;;13.38;7.25;;;1.70;99.90;;;;;;5134605;27;19919;-65
2021/12/24 21:05:38;;;;;;;14.00;8.10;;;1.70;99.90;;;;;;5134150;27;20089;-64
2021/12/24 21:08:04;;;;;;;12.40;6.88;;;1.70;99.90;;;;;;5134032;27;20130;-65
2021/12/24 21:10:30;;;;;;;11.68;6.32;;;1.70;99.90;;;;;;5132571;28;20135;-65
2021/12/24 21:12:56;;;;;;;9.30;5.80;;;1.60;99.90;;;;;;5133120;28;20116;-66
2021/12/24 21:15:23;;;;;;;13.15;7.25;;;1.60;99.90;;;;;;5134033;27;20084;-66
2021/12/24 21:17:50;;;;;;;12.70;6.82;;;1.60;99.90;;;;;;5135101;27;20087;-65
2021/12/24 21:20:17;;;;;;;10.55;5.95;;;1.50;99.90;;;;;;5136599;27;20502;-64
2021/12/24 21:22:43;;;;;;;9.35;5.38;;;1.50;99.90;;;;;;5137761;27;20035;-65
2021/12/24 21:25:10;;;;;;;;;;;1.40;99.90;;;;;;5137010;27;20097;-64
2021/12/24 21:27:36;;;;;;;7.97;4.22;;;;;;;;;;5143401;27;19926;-64
2021/12/24 21:30:06;;;;;;;10.30;4.43;;;1.30;99.90;;;;;;5147257;27;20497;-63